Pagrindinis puslapis
METAR-TAF:

METAR-TAF

Oro uostai :

Užhorodas, Ukraina

platuma: 48-38-05N, ilguma: 022-15-53E, Aukštis: 117 m

Dabartinis oras

Ataskaita buvo paskelbta 5 valandos ir 11 minutes, ne 16:00 UTC
Ramus vėjas
Temperatūra 1°C
Drėgmė 93%
Slėgis 1044 hPa
Matomumas: 6000 m
Apsiniaukę ne aukštis 3500 ft

METAR: UKLU 201600Z 00000MPS 6000 OVC035 01/M00 Q1044 R10/090070 NOSIG

Laikas: 23:11 (21:11 UTC)

Prognozė

Ataskaita buvo paskelbta 7 valandos ir 9 minutes, ne 14:02 UTC
Prognozė galioja nuo 20 metu 15 UTC su 20 metu 24 UTC
Vėjas 2 kt nuo kintamojo kryptimis
Matomumas: 6000 m
Apsiniaukę ne aukštis 2000 ft
Laikinai
nuo 20 metu 15 UTC su 20 metu 21 UTC
Matomumas: 0500 m
ne aukštis 200 ft
įšaldymas rūko

TAF: UKLU 201402Z 2015/2024 VRB01MPS 6000 OVC020 TX01/2015Z TNM01/2024Z TEMPO 2015/2021 0500 FZFG VV002

Orai ataskaitas ir orų prognozės (METAR, TAF).

turimą stotys yra geltonos ir raudonos taškus žemėlapyje.

Perkelti pele per norėdami pamatyti stoties vardą.

Tada spustelėkite, norėdami matyti oro stebėjimo ir prognozės.

Norėdami pakeisti žemėlapį: spustelėkite ant žalios mygtukų su juodo kryžiaus žemyn,; žalią mygtuką su brūkšneliu, jei norite nutolinti; arba žalių rodyklių gretimoms žemėlapius.


METAR-TAF: